Portada
METAR-TAF:

METAR-TAF

Aeroports :

Harbin, Xina

latitud: 45-45N, longitud: 126-46E, altitud: 143 m

Observació

L'informe es va fer fa 24 minuts, a les 04:00 UTC
Vent 6 kt del Oest, variant entre Sud-Oest i Oest/Nord-Oest
Temperatura -10°C
Humitat 67%
Pressió 1029 hPa
Visibilitat 10 km o més
sense núvols per sota de 1500 mi sense presència de cumulonimbus.

METAR: ZYHB 280400Z 26003MPS 230V290 CAVOK M10/M15 Q1029 NOSIG

Hora: 12:24 (04:24 UTC)

Pronòstic

L'informe es va fer fa 7 hores i 18 minuts, a les 21:06 UTC
Pronòstic vàlid del 28 a les 00 UTC al 28 a les 24 UTC
Vent 8 kt del Oest/Sud-Oest
Visibilitat: 6000 m
Escasses núvols a una alçada de 3300 ft

TAF: ZYHB 272106Z 2800/2824 25004MPS 6000 FEW033 TXM09/2806Z TNM19/2822Z

Observacions i pronòstics meteorològics de més de 4000 aeroports (METAR i TAF).

Les estacions disponibles són els punts grocs i vermells al mapa.

Posi el ratolí al punt desitjat per veure el nom de l'estació.

Feu clic per veure les observacions i els pronòstics meteorològics.

Per canviar el mapa: feu clic els botons verds amb una creu de color negre per apropar; al botó verd amb un guió per allunyar la imatge; o en les fletxes verdes per a mapes adjacents.


METAR-TAF: